createdAt,value
2022-07-25T00:01:20.641Z,26.40
2022-07-25T00:03:49.263Z,26.40
2022-07-25T00:06:17.664Z,26.30
2022-07-25T00:08:46.144Z,26.30
2022-07-25T00:11:14.400Z,26.30
2022-07-25T00:13:42.406Z,26.20
2022-07-25T00:16:10.401Z,26.20
2022-07-25T00:18:39.747Z,26.20
2022-07-25T00:21:07.813Z,26.20
2022-07-25T00:23:35.798Z,26.10
2022-07-25T00:26:03.788Z,26.10
2022-07-25T00:28:31.768Z,26.10
2022-07-25T00:30:59.821Z,26.10
2022-07-25T00:33:27.819Z,26.10
2022-07-25T00:35:57.127Z,26.00
2022-07-25T00:38:25.092Z,26.00
2022-07-25T00:40:53.513Z,26.00
2022-07-25T00:43:23.648Z,26.00
2022-07-25T00:45:51.700Z,25.90
2022-07-25T00:48:19.722Z,25.90
2022-07-25T00:50:47.751Z,25.90
2022-07-25T00:53:17.316Z,25.90
2022-07-25T00:55:45.798Z,25.80
2022-07-25T00:58:14.403Z,25.80
2022-07-25T01:00:42.716Z,25.80
2022-07-25T01:03:10.850Z,25.80
2022-07-25T01:05:39.029Z,25.80
2022-07-25T01:08:08.248Z,25.70
2022-07-25T01:10:38.665Z,25.70
2022-07-25T01:13:07.256Z,25.70
2022-07-25T01:15:35.430Z,25.70
2022-07-25T01:18:03.484Z,25.70
2022-07-25T01:20:34.119Z,25.60
2022-07-25T01:23:02.668Z,25.60
2022-07-25T01:25:30.707Z,25.60
2022-07-25T01:27:58.772Z,25.60
2022-07-25T01:30:27.363Z,25.50
2022-07-25T01:32:55.407Z,25.50
2022-07-25T01:35:23.578Z,25.50
2022-07-25T01:37:53.205Z,25.50
2022-07-25T01:40:21.329Z,25.50
2022-07-25T01:42:49.323Z,25.40
2022-07-25T01:45:17.319Z,25.40
2022-07-25T01:47:45.226Z,25.40
2022-07-25T01:50:13.233Z,25.40
2022-07-25T01:52:41.234Z,25.30
2022-07-25T01:55:11.645Z,25.30
2022-07-25T01:57:41.104Z,25.30
2022-07-25T02:00:19.202Z,25.30
2022-07-25T02:02:47.901Z,25.20
2022-07-25T02:05:16.883Z,25.20
2022-07-25T02:07:44.846Z,25.20
2022-07-25T02:10:14.167Z,25.20
2022-07-25T02:12:42.146Z,25.20
2022-07-25T02:15:11.134Z,25.10
2022-07-25T02:17:39.296Z,25.10
2022-07-25T02:20:08.709Z,25.10
2022-07-25T02:22:36.696Z,25.10
2022-07-25T02:25:05.300Z,25.10
2022-07-25T02:27:34.583Z,25.00
2022-07-25T02:30:02.558Z,25.00
2022-07-25T02:32:30.505Z,25.00
2022-07-25T02:34:59.146Z,25.00
2022-07-25T02:37:27.090Z,25.00
2022-07-25T02:39:55.038Z,25.00
2022-07-25T02:42:23.016Z,24.90
2022-07-25T02:44:52.366Z,24.90
2022-07-25T02:47:20.356Z,24.90
2022-07-25T02:49:48.322Z,24.90
2022-07-25T02:52:16.282Z,24.80
2022-07-25T02:54:44.302Z,24.80
2022-07-25T02:57:12.362Z,24.80
2022-07-25T02:59:40.344Z,24.80
2022-07-25T03:02:09.627Z,24.80
2022-07-25T03:04:37.715Z,24.80
2022-07-25T03:07:05.812Z,24.80
2022-07-25T03:09:33.806Z,24.70
2022-07-25T03:12:01.940Z,24.70
2022-07-25T03:14:30.203Z,24.70
2022-07-25T03:16:58.297Z,24.70
2022-07-25T03:19:27.745Z,24.70
2022-07-25T03:21:55.777Z,24.70
2022-07-25T03:24:23.858Z,24.60
2022-07-25T03:26:51.853Z,24.60
2022-07-25T03:29:19.767Z,24.60
2022-07-25T03:31:47.801Z,24.60
2022-07-25T03:34:15.856Z,24.60
2022-07-25T03:36:45.166Z,24.60
2022-07-25T03:39:14.483Z,24.60
2022-07-25T03:41:42.586Z,24.50
2022-07-25T03:44:10.825Z,24.50
2022-07-25T03:46:38.945Z,24.50
2022-07-25T03:49:07.173Z,24.50
2022-07-25T03:51:35.378Z,24.50
2022-07-25T03:54:06.375Z,24.50
2022-07-25T03:56:43.907Z,24.50
2022-07-25T03:59:15.268Z,24.50
2022-07-25T04:01:44.890Z,24.40
2022-07-25T04:04:13.714Z,24.50
2022-07-25T04:06:42.929Z,24.50
2022-07-25T04:09:13.489Z,24.50
2022-07-25T04:11:41.515Z,24.50
2022-07-25T04:14:09.718Z,24.50
2022-07-25T04:16:38.008Z,24.50
2022-07-25T04:19:08.690Z,24.50
2022-07-25T04:21:36.824Z,24.50
2022-07-25T04:24:05.457Z,24.50
2022-07-25T04:26:34.929Z,24.50
2022-07-25T04:29:03.729Z,24.60
2022-07-25T04:31:31.893Z,24.60
2022-07-25T04:34:00.319Z,24.60
2022-07-25T04:36:28.424Z,24.70
2022-07-25T04:38:56.419Z,24.70
2022-07-25T04:41:24.420Z,24.70
2022-07-25T04:43:53.759Z,24.70
2022-07-25T04:46:23.107Z,24.80
2022-07-25T04:48:52.378Z,24.80
2022-07-25T04:51:20.397Z,24.90
2022-07-25T04:53:48.486Z,24.90
2022-07-25T04:56:16.892Z,25.00
2022-07-25T04:58:45.060Z,25.00
2022-07-25T05:01:14.413Z,25.10
2022-07-25T05:03:49.788Z,25.20
2022-07-25T05:06:18.923Z,25.20
2022-07-25T05:08:47.996Z,25.20
2022-07-25T05:11:16.012Z,25.30
2022-07-25T05:13:44.063Z,25.40
2022-07-25T05:16:12.104Z,25.40
2022-07-25T05:18:41.536Z,25.50
2022-07-25T05:21:12.443Z,25.50
2022-07-25T05:23:40.495Z,25.50
2022-07-25T05:26:08.655Z,25.60
2022-07-25T05:28:36.885Z,25.70
2022-07-25T05:31:05.459Z,25.70
2022-07-25T05:33:34.806Z,25.80
2022-07-25T05:36:05.231Z,25.80
2022-07-25T05:38:33.490Z,25.90
2022-07-25T05:41:01.597Z,25.90
2022-07-25T05:43:29.727Z,26.00
2022-07-25T05:46:02.848Z,26.00
2022-07-25T05:48:30.897Z,26.10
2022-07-25T05:51:00.014Z,26.20
2022-07-25T05:53:29.529Z,26.20
2022-07-25T05:55:57.580Z,26.30
2022-07-25T05:58:29.637Z,26.40
2022-07-25T06:00:58.769Z,26.40
2022-07-25T06:03:27.293Z,26.50
2022-07-25T06:05:56.862Z,26.60
2022-07-25T06:08:25.053Z,26.60
2022-07-25T06:10:54.353Z,26.70
2022-07-25T06:13:23.591Z,26.80
2022-07-25T06:15:51.880Z,26.80
2022-07-25T06:18:19.975Z,26.90
2022-07-25T06:20:48.793Z,27.00
2022-07-25T06:23:17.410Z,27.10
2022-07-25T06:25:50.527Z,27.20
2022-07-25T06:28:19.961Z,27.30
2022-07-25T06:30:49.416Z,27.40
2022-07-25T06:33:17.430Z,27.50
2022-07-25T06:35:45.471Z,27.60
2022-07-25T06:38:13.522Z,27.70
2022-07-25T06:40:41.626Z,27.90
2022-07-25T06:43:09.661Z,28.00
2022-07-25T06:45:39.007Z,28.10
2022-07-25T06:48:07.339Z,28.30
2022-07-25T06:50:35.315Z,28.40
2022-07-25T06:53:03.424Z,28.60
2022-07-25T06:55:31.474Z,28.70
2022-07-25T06:57:59.499Z,28.80
2022-07-25T07:00:27.945Z,29.00
2022-07-25T07:03:01.350Z,29.20
2022-07-25T07:05:34.051Z,29.40
2022-07-25T07:08:02.421Z,29.60
2022-07-25T07:10:30.633Z,29.80
2022-07-25T07:13:08.100Z,29.90
2022-07-25T07:15:37.809Z,30.20
2022-07-25T07:18:08.087Z,30.30
2022-07-25T07:20:36.371Z,30.50
2022-07-25T07:23:04.425Z,30.70
2022-07-25T07:25:34.303Z,30.70
2022-07-25T07:28:02.561Z,30.90
2022-07-25T07:30:58.552Z,31.10
2022-07-25T07:33:20.369Z,31.20
2022-07-25T07:35:48.419Z,31.30
2022-07-25T07:38:18.045Z,31.40
2022-07-25T07:40:46.323Z,31.60
2022-07-25T07:43:14.512Z,31.80
2022-07-25T07:45:44.082Z,32.00
2022-07-25T07:48:12.398Z,32.10
2022-07-25T07:50:41.866Z,32.30
2022-07-25T07:53:09.979Z,32.50
2022-07-25T07:55:46.621Z,32.70
2022-07-25T07:58:17.547Z,32.90
2022-07-25T08:00:47.467Z,33.10
2022-07-25T08:03:20.466Z,33.20
2022-07-25T08:05:51.780Z,33.50
2022-07-25T08:08:19.892Z,33.70
2022-07-25T08:10:51.198Z,33.90
2022-07-25T08:13:23.646Z,34.10
2022-07-25T08:15:54.911Z,34.30
2022-07-25T08:18:23.007Z,34.50
2022-07-25T08:20:53.178Z,34.70
2022-07-25T08:23:21.317Z,34.90
2022-07-25T08:25:50.032Z,35.10
2022-07-25T08:28:18.181Z,35.20
2022-07-25T08:30:46.325Z,35.40
2022-07-25T08:33:16.675Z,35.60
2022-07-25T08:35:51.791Z,35.70
2022-07-25T08:38:22.520Z,35.80
2022-07-25T08:40:51.003Z,36.00
2022-07-25T08:43:20.504Z,36.10
2022-07-25T08:45:51.375Z,36.20
2022-07-25T08:48:22.440Z,36.30
2022-07-25T08:50:51.765Z,36.40
2022-07-25T08:53:39.167Z,36.40
2022-07-25T08:56:16.093Z,36.50
2022-07-25T08:58:47.235Z,36.60
2022-07-25T09:01:15.535Z,36.60
2022-07-25T09:03:44.351Z,36.70
2022-07-25T09:06:19.038Z,36.70
2022-07-25T09:08:57.813Z,36.70
2022-07-25T09:11:32.488Z,36.70
2022-07-25T09:14:04.890Z,36.80
2022-07-25T09:16:35.697Z,36.80
2022-07-25T09:19:13.206Z,36.80
2022-07-25T09:21:44.437Z,36.70
2022-07-25T09:24:17.907Z,36.80
2022-07-25T09:26:49.110Z,36.80
2022-07-25T09:29:20.119Z,36.80
2022-07-25T09:31:48.621Z,36.70
2022-07-25T09:34:31.213Z,36.60
2022-07-25T09:36:59.782Z,36.70
2022-07-25T09:39:43.436Z,36.50
2022-07-25T09:42:23.124Z,36.50
2022-07-25T09:45:11.265Z,36.40
2022-07-25T09:47:54.601Z,36.30
